sensor_id;sensor_type;location;lat;lon;timestamp;P1;durP1;ratioP1;P2;durP2;ratioP2
21814;SDS011;11069;48.988;8.450;2023-04-27T00:00:25;9.70;;;4.65;;
21814;SDS011;11069;48.988;8.450;2023-04-27T00:02:51;7.75;;;4.30;;
21814;SDS011;11069;48.988;8.450;2023-04-27T00:05:25;10.05;;;4.72;;
21814;SDS011;11069;48.988;8.450;2023-04-27T00:07:51;5.75;;;4.78;;
21814;SDS011;11069;48.988;8.450;2023-04-27T00:10:17;9.18;;;4.90;;
21814;SDS011;11069;48.988;8.450;2023-04-27T00:12:42;5.82;;;4.20;;
21814;SDS011;11069;48.988;8.450;2023-04-27T00:15:08;8.75;;;4.80;;
21814;SDS011;11069;48.988;8.450;2023-04-27T00:17:34;8.55;;;4.60;;
21814;SDS011;11069;48.988;8.450;2023-04-27T00:20:00;7.85;;;4.72;;
21814;SDS011;11069;48.988;8.450;2023-04-27T00:22:25;6.45;;;4.57;;
21814;SDS011;11069;48.988;8.450;2023-04-27T00:24:51;5.75;;;4.43;;
21814;SDS011;11069;48.988;8.450;2023-04-27T00:27:16;6.57;;;4.18;;
21814;SDS011;11069;48.988;8.450;2023-04-27T00:29:42;5.45;;;4.13;;
21814;SDS011;11069;48.988;8.450;2023-04-27T00:32:10;10.00;;;4.60;;
21814;SDS011;11069;48.988;8.450;2023-04-27T00:34:36;7.20;;;4.53;;
21814;SDS011;11069;48.988;8.450;2023-04-27T00:37:03;8.40;;;4.80;;
21814;SDS011;11069;48.988;8.450;2023-04-27T00:39:29;7.35;;;5.32;;
21814;SDS011;11069;48.988;8.450;2023-04-27T00:41:55;8.38;;;4.90;;
21814;SDS011;11069;48.988;8.450;2023-04-27T00:44:21;7.25;;;4.80;;
21814;SDS011;11069;48.988;8.450;2023-04-27T00:46:51;7.13;;;5.00;;
21814;SDS011;11069;48.988;8.450;2023-04-27T00:49:18;7.43;;;5.43;;
21814;SDS011;11069;48.988;8.450;2023-04-27T00:51:45;6.65;;;5.35;;
21814;SDS011;11069;48.988;8.450;2023-04-27T00:54:17;6.90;;;4.90;;
21814;SDS011;11069;48.988;8.450;2023-04-27T00:56:47;9.68;;;4.82;;
21814;SDS011;11069;48.988;8.450;2023-04-27T00:59:14;7.65;;;5.13;;
21814;SDS011;11069;48.988;8.450;2023-04-27T01:01:39;7.10;;;5.18;;
21814;SDS011;11069;48.988;8.450;2023-04-27T01:04:05;8.00;;;4.97;;
21814;SDS011;11069;48.988;8.450;2023-04-27T01:06:31;6.53;;;5.55;;
21814;SDS011;11069;48.988;8.450;2023-04-27T01:08:56;6.97;;;5.55;;
21814;SDS011;11069;48.988;8.450;2023-04-27T01:11:22;10.98;;;4.90;;
21814;SDS011;11069;48.988;8.450;2023-04-27T01:13:47;7.20;;;5.03;;
21814;SDS011;11069;48.988;8.450;2023-04-27T01:16:13;5.65;;;4.82;;
21814;SDS011;11069;48.988;8.450;2023-04-27T01:18:41;8.35;;;5.55;;
21814;SDS011;11069;48.988;8.450;2023-04-27T01:21:06;8.68;;;5.45;;
21814;SDS011;11069;48.988;8.450;2023-04-27T01:23:32;7.15;;;5.40;;
21814;SDS011;11069;48.988;8.450;2023-04-27T01:25:57;6.80;;;5.80;;
21814;SDS011;11069;48.988;8.450;2023-04-27T01:28:23;6.57;;;5.07;;
21814;SDS011;11069;48.988;8.450;2023-04-27T01:30:48;6.50;;;5.60;;
21814;SDS011;11069;48.988;8.450;2023-04-27T01:33:14;7.78;;;5.60;;
21814;SDS011;11069;48.988;8.450;2023-04-27T01:35:40;5.95;;;5.35;;
21814;SDS011;11069;48.988;8.450;2023-04-27T01:38:06;6.57;;;5.47;;
21814;SDS011;11069;48.988;8.450;2023-04-27T01:40:32;8.98;;;5.63;;
21814;SDS011;11069;48.988;8.450;2023-04-27T01:42:57;6.25;;;5.28;;
21814;SDS011;11069;48.988;8.450;2023-04-27T01:45:23;6.47;;;5.15;;
21814;SDS011;11069;48.988;8.450;2023-04-27T01:47:49;7.20;;;5.13;;
21814;SDS011;11069;48.988;8.450;2023-04-27T01:50:16;6.65;;;5.22;;
21814;SDS011;11069;48.988;8.450;2023-04-27T01:52:41;7.72;;;5.35;;
21814;SDS011;11069;48.988;8.450;2023-04-27T01:55:07;7.72;;;5.70;;
21814;SDS011;11069;48.988;8.450;2023-04-27T01:57:33;7.38;;;5.22;;
21814;SDS011;11069;48.988;8.450;2023-04-27T01:59:58;7.70;;;5.50;;
21814;SDS011;11069;48.988;8.450;2023-04-27T02:02:24;6.38;;;5.53;;
21814;SDS011;11069;48.988;8.450;2023-04-27T02:04:49;7.82;;;5.30;;
21814;SDS011;11069;48.988;8.450;2023-04-27T02:07:15;7.43;;;5.25;;
21814;SDS011;11069;48.988;8.450;2023-04-27T02:09:41;9.00;;;5.72;;
21814;SDS011;11069;48.988;8.450;2023-04-27T02:12:06;8.02;;;5.63;;
21814;SDS011;11069;48.988;8.450;2023-04-27T02:14:32;7.78;;;5.70;;
21814;SDS011;11069;48.988;8.450;2023-04-27T02:16:58;8.35;;;5.70;;
21814;SDS011;11069;48.988;8.450;2023-04-27T02:19:23;7.78;;;5.60;;
21814;SDS011;11069;48.988;8.450;2023-04-27T02:21:49;9.07;;;6.05;;
21814;SDS011;11069;48.988;8.450;2023-04-27T02:24:14;7.32;;;6.00;;
21814;SDS011;11069;48.988;8.450;2023-04-27T02:26:40;6.55;;;5.22;;
21814;SDS011;11069;48.988;8.450;2023-04-27T03:22:58;8.98;;;5.93;;
21814;SDS011;11069;48.988;8.450;2023-04-27T03:25:23;7.35;;;6.15;;
21814;SDS011;11069;48.988;8.450;2023-04-27T03:27:49;10.18;;;5.93;;
21814;SDS011;11069;48.988;8.450;2023-04-27T03:30:15;9.80;;;6.05;;
21814;SDS011;11069;48.988;8.450;2023-04-27T03:32:40;9.27;;;6.03;;
21814;SDS011;11069;48.988;8.450;2023-04-27T03:35:06;7.78;;;6.43;;
21814;SDS011;11069;48.988;8.450;2023-04-27T03:37:33;7.00;;;5.93;;
21814;SDS011;11069;48.988;8.450;2023-04-27T03:39:58;9.45;;;6.15;;
21814;SDS011;11069;48.988;8.450;2023-04-27T03:42:24;6.95;;;5.88;;
21814;SDS011;11069;48.988;8.450;2023-04-27T03:44:50;8.73;;;5.95;;
21814;SDS011;11069;48.988;8.450;2023-04-27T03:47:15;6.63;;;5.95;;
21814;SDS011;11069;48.988;8.450;2023-04-27T03:49:41;7.32;;;6.13;;
21814;SDS011;11069;48.988;8.450;2023-04-27T03:52:06;8.52;;;6.45;;
21814;SDS011;11069;48.988;8.450;2023-04-27T03:54:32;6.82;;;6.15;;
21814;SDS011;11069;48.988;8.450;2023-04-27T03:56:58;7.65;;;6.85;;
21814;SDS011;11069;48.988;8.450;2023-04-27T03:59:23;9.63;;;6.43;;
21814;SDS011;11069;48.988;8.450;2023-04-27T04:01:49;8.38;;;6.95;;
21814;SDS011;11069;48.988;8.450;2023-04-27T04:04:14;9.77;;;7.13;;
21814;SDS011;11069;48.988;8.450;2023-04-27T04:06:40;7.85;;;6.63;;
21814;SDS011;11069;48.988;8.450;2023-04-27T04:09:06;9.07;;;6.32;;
21814;SDS011;11069;48.988;8.450;2023-04-27T04:11:31;9.13;;;6.50;;
21814;SDS011;11069;48.988;8.450;2023-04-27T04:13:57;8.00;;;6.78;;
21814;SDS011;11069;48.988;8.450;2023-04-27T04:16:22;8.23;;;6.50;;
21814;SDS011;11069;48.988;8.450;2023-04-27T04:18:48;9.07;;;6.50;;
21814;SDS011;11069;48.988;8.450;2023-04-27T04:21:13;9.73;;;6.63;;
21814;SDS011;11069;48.988;8.450;2023-04-27T04:23:39;7.05;;;6.35;;
21814;SDS011;11069;48.988;8.450;2023-04-27T04:26:05;9.18;;;6.80;;
21814;SDS011;11069;48.988;8.450;2023-04-27T04:28:31;7.28;;;6.15;;
21814;SDS011;11069;48.988;8.450;2023-04-27T04:30:57;10.70;;;6.65;;
21814;SDS011;11069;48.988;8.450;2023-04-27T04:33:24;8.45;;;6.70;;
21814;SDS011;11069;48.988;8.450;2023-04-27T04:35:51;11.52;;;6.57;;
21814;SDS011;11069;48.988;8.450;2023-04-27T04:38:17;11.07;;;7.65;;
21814;SDS011;11069;48.988;8.450;2023-04-27T04:40:43;8.65;;;6.90;;
21814;SDS011;11069;48.988;8.450;2023-04-27T04:43:08;7.85;;;6.72;;
21814;SDS011;11069;48.988;8.450;2023-04-27T04:45:35;12.30;;;7.53;;
21814;SDS011;11069;48.988;8.450;2023-04-27T04:48:01;10.02;;;7.72;;
21814;SDS011;11069;48.988;8.450;2023-04-27T04:50:26;8.88;;;6.55;;
21814;SDS011;11069;48.988;8.450;2023-04-27T04:52:52;11.15;;;7.30;;
21814;SDS011;11069;48.988;8.450;2023-04-27T04:55:18;10.80;;;7.75;;
21814;SDS011;11069;48.988;8.450;2023-04-27T04:57:44;8.85;;;7.13;;
21814;SDS011;11069;48.988;8.450;2023-04-27T05:00:10;8.65;;;6.93;;
21814;SDS011;11069;48.988;8.450;2023-04-27T05:02:37;8.10;;;7.03;;
21814;SDS011;11069;48.988;8.450;2023-04-27T05:05:04;11.35;;;7.03;;
21814;SDS011;11069;48.988;8.450;2023-04-27T05:07:29;10.20;;;7.32;;
21814;SDS011;11069;48.988;8.450;2023-04-27T05:09:55;8.90;;;6.88;;
21814;SDS011;11069;48.988;8.450;2023-04-27T05:12:21;8.35;;;7.25;;
21814;SDS011;11069;48.988;8.450;2023-04-27T05:14:46;10.23;;;7.03;;
21814;SDS011;11069;48.988;8.450;2023-04-27T05:17:30;9.73;;;6.72;;
21814;SDS011;11069;48.988;8.450;2023-04-27T05:19:56;7.43;;;6.60;;
21814;SDS011;11069;48.988;8.450;2023-04-27T05:22:22;8.38;;;6.85;;
21814;SDS011;11069;48.988;8.450;2023-04-27T05:24:47;8.15;;;6.78;;
21814;SDS011;11069;48.988;8.450;2023-04-27T05:27:13;10.15;;;6.25;;
21814;SDS011;11069;48.988;8.450;2023-04-27T05:29:38;10.90;;;7.22;;
21814;SDS011;11069;48.988;8.450;2023-04-27T05:32:05;9.05;;;6.95;;
21814;SDS011;11069;48.988;8.450;2023-04-27T05:34:30;9.98;;;7.18;;
21814;SDS011;11069;48.988;8.450;2023-04-27T05:36:56;8.50;;;6.85;;
21814;SDS011;11069;48.988;8.450;2023-04-27T05:39:21;9.18;;;6.78;;
21814;SDS011;11069;48.988;8.450;2023-04-27T05:41:47;13.05;;;6.95;;
21814;SDS011;11069;48.988;8.450;2023-04-27T05:44:13;8.48;;;6.43;;
21814;SDS011;11069;48.988;8.450;2023-04-27T05:46:38;8.52;;;6.95;;
21814;SDS011;11069;48.988;8.450;2023-04-27T05:49:04;6.82;;;6.13;;
21814;SDS011;11069;48.988;8.450;2023-04-27T05:51:31;8.57;;;6.25;;
21814;SDS011;11069;48.988;8.450;2023-04-27T05:53:57;7.78;;;5.90;;
21814;SDS011;11069;48.988;8.450;2023-04-27T05:56:23;14.38;;;6.50;;
21814;SDS011;11069;48.988;8.450;2023-04-27T05:58:50;8.82;;;6.13;;
21814;SDS011;11069;48.988;8.450;2023-04-27T06:01:15;8.00;;;5.60;;
21814;SDS011;11069;48.988;8.450;2023-04-27T06:03:41;8.25;;;6.00;;
21814;SDS011;11069;48.988;8.450;2023-04-27T06:06:06;7.65;;;5.95;;
21814;SDS011;11069;48.988;8.450;2023-04-27T06:08:32;8.55;;;5.88;;
21814;SDS011;11069;48.988;8.450;2023-04-27T06:11:01;8.23;;;5.75;;
21814;SDS011;11069;48.988;8.450;2023-04-27T06:13:27;7.93;;;6.65;;
21814;SDS011;11069;48.988;8.450;2023-04-27T06:15:52;8.65;;;6.07;;
21814;SDS011;11069;48.988;8.450;2023-04-27T06:18:18;9.23;;;5.90;;
21814;SDS011;11069;48.988;8.450;2023-04-27T06:20:44;9.30;;;6.32;;
21814;SDS011;11069;48.988;8.450;2023-04-27T06:23:10;9.95;;;6.07;;
21814;SDS011;11069;48.988;8.450;2023-04-27T06:25:36;9.85;;;5.78;;
21814;SDS011;11069;48.988;8.450;2023-04-27T06:28:04;10.68;;;6.20;;
21814;SDS011;11069;48.988;8.450;2023-04-27T06:30:30;7.65;;;5.57;;
21814;SDS011;11069;48.988;8.450;2023-04-27T06:32:55;8.82;;;5.80;;
21814;SDS011;11069;48.988;8.450;2023-04-27T06:35:21;9.18;;;5.80;;
21814;SDS011;11069;48.988;8.450;2023-04-27T06:37:46;11.05;;;5.75;;
21814;SDS011;11069;48.988;8.450;2023-04-27T06:40:12;7.68;;;5.78;;
21814;SDS011;11069;48.988;8.450;2023-04-27T06:42:38;8.23;;;6.07;;
21814;SDS011;11069;48.988;8.450;2023-04-27T06:45:03;9.23;;;5.72;;
21814;SDS011;11069;48.988;8.450;2023-04-27T06:47:29;10.07;;;5.65;;
21814;SDS011;11069;48.988;8.450;2023-04-27T06:49:55;9.32;;;5.55;;
21814;SDS011;11069;48.988;8.450;2023-04-27T06:52:21;9.95;;;5.95;;
21814;SDS011;11069;48.988;8.450;2023-04-27T06:54:46;7.70;;;5.60;;
21814;SDS011;11069;48.988;8.450;2023-04-27T06:57:12;7.65;;;5.50;;
21814;SDS011;11069;48.988;8.450;2023-04-27T06:59:37;9.82;;;5.85;;
21814;SDS011;11069;48.988;8.450;2023-04-27T07:02:04;7.65;;;5.47;;
21814;SDS011;11069;48.988;8.450;2023-04-27T07:04:31;10.05;;;5.68;;
21814;SDS011;11069;48.988;8.450;2023-04-27T07:06:57;9.43;;;6.00;;
21814;SDS011;11069;48.988;8.450;2023-04-27T07:09:22;6.47;;;5.40;;
21814;SDS011;11069;48.988;8.450;2023-04-27T07:11:48;7.00;;;5.25;;
21814;SDS011;11069;48.988;8.450;2023-04-27T07:14:13;6.82;;;5.35;;
21814;SDS011;11069;48.988;8.450;2023-04-27T07:16:39;6.18;;;5.45;;
21814;SDS011;11069;48.988;8.450;2023-04-27T07:19:04;11.13;;;6.07;;
21814;SDS011;11069;48.988;8.450;2023-04-27T07:21:30;7.15;;;5.18;;
21814;SDS011;11069;48.988;8.450;2023-04-27T07:23:56;6.78;;;5.18;;
21814;SDS011;11069;48.988;8.450;2023-04-27T07:26:21;6.68;;;4.85;;
21814;SDS011;11069;48.988;8.450;2023-04-27T07:28:48;7.15;;;4.57;;
21814;SDS011;11069;48.988;8.450;2023-04-27T07:31:14;9.93;;;4.60;;
21814;SDS011;11069;48.988;8.450;2023-04-27T07:33:40;7.53;;;4.97;;
21814;SDS011;11069;48.988;8.450;2023-04-27T07:36:05;8.05;;;4.38;;
21814;SDS011;11069;48.988;8.450;2023-04-27T07:38:31;7.15;;;4.05;;
21814;SDS011;11069;48.988;8.450;2023-04-27T07:40:57;10.98;;;4.80;;
21814;SDS011;11069;48.988;8.450;2023-04-27T07:43:25;8.85;;;4.70;;
21814;SDS011;11069;48.988;8.450;2023-04-27T07:45:51;8.05;;;5.25;;
21814;SDS011;11069;48.988;8.450;2023-04-27T07:48:18;7.28;;;4.72;;
21814;SDS011;11069;48.988;8.450;2023-04-27T07:50:44;5.82;;;4.70;;
21814;SDS011;11069;48.988;8.450;2023-04-27T07:53:10;7.45;;;4.30;;
21814;SDS011;11069;48.988;8.450;2023-04-27T07:55:36;6.50;;;4.40;;
21814;SDS011;11069;48.988;8.450;2023-04-27T07:58:02;8.07;;;5.03;;
21814;SDS011;11069;48.988;8.450;2023-04-27T08:00:28;8.65;;;4.80;;
21814;SDS011;11069;48.988;8.450;2023-04-27T08:02:54;7.50;;;5.05;;
21814;SDS011;11069;48.988;8.450;2023-04-27T08:05:19;7.05;;;4.68;;
21814;SDS011;11069;48.988;8.450;2023-04-27T08:07:45;7.15;;;4.85;;
21814;SDS011;11069;48.988;8.450;2023-04-27T08:10:11;6.50;;;4.70;;
21814;SDS011;11069;48.988;8.450;2023-04-27T08:12:37;6.70;;;4.40;;
21814;SDS011;11069;48.988;8.450;2023-04-27T08:15:03;8.25;;;5.22;;
21814;SDS011;11069;48.988;8.450;2023-04-27T08:17:29;7.78;;;4.70;;
21814;SDS011;11069;48.988;8.450;2023-04-27T08:19:55;7.95;;;4.50;;
21814;SDS011;11069;48.988;8.450;2023-04-27T08:22:20;7.43;;;4.80;;
21814;SDS011;11069;48.988;8.450;2023-04-27T08:24:46;7.90;;;4.22;;
21814;SDS011;11069;48.988;8.450;2023-04-27T08:27:12;11.57;;;4.25;;
21814;SDS011;11069;48.988;8.450;2023-04-27T08:29:37;7.43;;;4.20;;
21814;SDS011;11069;48.988;8.450;2023-04-27T08:32:03;5.28;;;3.97;;
21814;SDS011;11069;48.988;8.450;2023-04-27T08:34:29;10.82;;;4.00;;
21814;SDS011;11069;48.988;8.450;2023-04-27T08:36:56;8.02;;;4.63;;
21814;SDS011;11069;48.988;8.450;2023-04-27T08:39:22;6.22;;;4.28;;
21814;SDS011;11069;48.988;8.450;2023-04-27T08:41:48;6.85;;;4.07;;
21814;SDS011;11069;48.988;8.450;2023-04-27T08:44:13;6.45;;;4.45;;
21814;SDS011;11069;48.988;8.450;2023-04-27T08:46:40;6.88;;;4.38;;
21814;SDS011;11069;48.988;8.450;2023-04-27T08:49:05;7.75;;;4.18;;
21814;SDS011;11069;48.988;8.450;2023-04-27T08:51:32;7.68;;;4.85;;
21814;SDS011;11069;48.988;8.450;2023-04-27T08:53:58;5.25;;;3.90;;
21814;SDS011;11069;48.988;8.450;2023-04-27T08:56:25;6.40;;;3.75;;
21814;SDS011;11069;48.988;8.450;2023-04-27T08:58:51;28.23;;;5.05;;
21814;SDS011;11069;48.988;8.450;2023-04-27T09:01:17;8.18;;;4.25;;
21814;SDS011;11069;48.988;8.450;2023-04-27T09:03:43;9.45;;;3.60;;
21814;SDS011;11069;48.988;8.450;2023-04-27T09:06:11;5.35;;;3.65;;
21814;SDS011;11069;48.988;8.450;2023-04-27T09:08:40;7.13;;;4.45;;
21814;SDS011;11069;48.988;8.450;2023-04-27T09:11:06;5.43;;;3.83;;
21814;SDS011;11069;48.988;8.450;2023-04-27T09:13:35;8.88;;;3.85;;
21814;SDS011;11069;48.988;8.450;2023-04-27T09:16:05;9.63;;;4.38;;
21814;SDS011;11069;48.988;8.450;2023-04-27T09:18:34;6.97;;;4.30;;
21814;SDS011;11069;48.988;8.450;2023-04-27T09:21:01;7.13;;;4.22;;
21814;SDS011;11069;48.988;8.450;2023-04-27T09:23:31;8.45;;;4.68;;
21814;SDS011;11069;48.988;8.450;2023-04-27T09:26:06;11.57;;;4.72;;
21814;SDS011;11069;48.988;8.450;2023-04-27T09:28:32;7.00;;;4.80;;
21814;SDS011;11069;48.988;8.450;2023-04-27T09:31:00;11.88;;;4.38;;
21814;SDS011;11069;48.988;8.450;2023-04-27T09:33:35;5.30;;;3.83;;
21814;SDS011;11069;48.988;8.450;2023-04-27T09:36:02;9.35;;;5.07;;
21814;SDS011;11069;48.988;8.450;2023-04-27T09:38:30;5.95;;;4.03;;
21814;SDS011;11069;48.988;8.450;2023-04-27T09:40:56;7.63;;;3.72;;
21814;SDS011;11069;48.988;8.450;2023-04-27T09:43:22;4.95;;;3.60;;
21814;SDS011;11069;48.988;8.450;2023-04-27T09:45:49;5.43;;;3.90;;
21814;SDS011;11069;48.988;8.450;2023-04-27T09:48:15;7.57;;;3.85;;
21814;SDS011;11069;48.988;8.450;2023-04-27T09:50:42;5.65;;;3.88;;
21814;SDS011;11069;48.988;8.450;2023-04-27T09:53:13;5.90;;;4.28;;
21814;SDS011;11069;48.988;8.450;2023-04-27T09:55:49;5.10;;;3.63;;
21814;SDS011;11069;48.988;8.450;2023-04-27T10:08:37;13.00;;;4.18;;
21814;SDS011;11069;48.988;8.450;2023-04-27T10:11:13;5.43;;;3.50;;
21814;SDS011;11069;48.988;8.450;2023-04-27T10:13:49;5.60;;;3.03;;
21814;SDS011;11069;48.988;8.450;2023-04-27T10:16:16;7.65;;;3.50;;
21814;SDS011;11069;48.988;8.450;2023-04-27T10:18:49;6.38;;;3.38;;
21814;SDS011;11069;48.988;8.450;2023-04-27T10:21:18;5.57;;;3.88;;
21814;SDS011;11069;48.988;8.450;2023-04-27T10:23:48;6.97;;;3.22;;
21814;SDS011;11069;48.988;8.450;2023-04-27T10:26:25;5.47;;;3.38;;
21814;SDS011;11069;48.988;8.450;2023-04-27T10:29:05;4.10;;;3.00;;
21814;SDS011;11069;48.988;8.450;2023-04-27T10:31:32;5.97;;;3.47;;
21814;SDS011;11069;48.988;8.450;2023-04-27T10:34:08;6.30;;;3.10;;
21814;SDS011;11069;48.988;8.450;2023-04-27T10:36:35;6.32;;;3.13;;
21814;SDS011;11069;48.988;8.450;2023-04-27T10:39:20;5.70;;;3.65;;
21814;SDS011;11069;48.988;8.450;2023-04-27T10:41:54;5.15;;;3.30;;
21814;SDS011;11069;48.988;8.450;2023-04-27T10:44:24;6.70;;;3.40;;
21814;SDS011;11069;48.988;8.450;2023-04-27T10:46:55;7.80;;;3.67;;
21814;SDS011;11069;48.988;8.450;2023-04-27T10:49:22;5.68;;;3.20;;
21814;SDS011;11069;48.988;8.450;2023-04-27T10:51:50;5.25;;;3.13;;
21814;SDS011;11069;48.988;8.450;2023-04-27T10:54:16;6.60;;;3.42;;
21814;SDS011;11069;48.988;8.450;2023-04-27T10:56:42;5.15;;;3.33;;
21814;SDS011;11069;48.988;8.450;2023-04-27T10:59:08;3.55;;;3.10;;
21814;SDS011;11069;48.988;8.450;2023-04-27T11:01:34;6.85;;;3.33;;
21814;SDS011;11069;48.988;8.450;2023-04-27T11:04:01;7.03;;;4.32;;
21814;SDS011;11069;48.988;8.450;2023-04-27T11:06:30;4.88;;;3.28;;
21814;SDS011;11069;48.988;8.450;2023-04-27T11:08:57;8.38;;;3.35;;
21814;SDS011;11069;48.988;8.450;2023-04-27T11:11:23;5.53;;;3.35;;
21814;SDS011;11069;48.988;8.450;2023-04-27T11:13:50;4.32;;;3.00;;
21814;SDS011;11069;48.988;8.450;2023-04-27T11:16:19;7.07;;;3.70;;
21814;SDS011;11069;48.988;8.450;2023-04-27T11:18:45;6.18;;;3.17;;
21814;SDS011;11069;48.988;8.450;2023-04-27T11:21:14;7.47;;;3.60;;
21814;SDS011;11069;48.988;8.450;2023-04-27T11:26:17;8.40;;;3.75;;
21814;SDS011;11069;48.988;8.450;2023-04-27T11:29:03;6.70;;;3.55;;
21814;SDS011;11069;48.988;8.450;2023-04-27T11:31:41;7.15;;;3.63;;
21814;SDS011;11069;48.988;8.450;2023-04-27T11:34:15;5.25;;;3.65;;
21814;SDS011;11069;48.988;8.450;2023-04-27T11:36:55;7.70;;;3.55;;
21814;SDS011;11069;48.988;8.450;2023-04-27T11:39:22;7.63;;;4.15;;
21814;SDS011;11069;48.988;8.450;2023-04-27T11:41:47;8.85;;;3.58;;
21814;SDS011;11069;48.988;8.450;2023-04-27T11:44:13;5.03;;;3.60;;
21814;SDS011;11069;48.988;8.450;2023-04-27T11:46:42;6.28;;;3.53;;
21814;SDS011;11069;48.988;8.450;2023-04-27T11:49:10;5.35;;;3.42;;
21814;SDS011;11069;48.988;8.450;2023-04-27T11:51:38;5.15;;;3.50;;
21814;SDS011;11069;48.988;8.450;2023-04-27T11:54:04;6.18;;;3.22;;
21814;SDS011;11069;48.988;8.450;2023-04-27T11:56:38;7.07;;;3.78;;
21814;SDS011;11069;48.988;8.450;2023-04-27T11:59:05;7.22;;;3.42;;
21814;SDS011;11069;48.988;8.450;2023-04-27T12:01:43;6.70;;;3.33;;
21814;SDS011;11069;48.988;8.450;2023-04-27T12:04:08;7.18;;;3.55;;
21814;SDS011;11069;48.988;8.450;2023-04-27T12:06:34;6.55;;;3.10;;
21814;SDS011;11069;48.988;8.450;2023-04-27T12:09:00;3.95;;;2.88;;
21814;SDS011;11069;48.988;8.450;2023-04-27T12:11:25;5.25;;;3.30;;
21814;SDS011;11069;48.988;8.450;2023-04-27T12:13:54;4.13;;;2.70;;
21814;SDS011;11069;48.988;8.450;2023-04-27T12:16:20;5.10;;;3.20;;
21814;SDS011;11069;48.988;8.450;2023-04-27T12:18:47;8.93;;;2.90;;
21814;SDS011;11069;48.988;8.450;2023-04-27T12:21:14;5.55;;;3.08;;
21814;SDS011;11069;48.988;8.450;2023-04-27T12:23:40;7.82;;;3.30;;
21814;SDS011;11069;48.988;8.450;2023-04-27T12:26:06;9.48;;;3.38;;
21814;SDS011;11069;48.988;8.450;2023-04-27T12:28:31;5.68;;;3.03;;
21814;SDS011;11069;48.988;8.450;2023-04-27T12:30:57;5.05;;;3.10;;
21814;SDS011;11069;48.988;8.450;2023-04-27T12:33:23;5.63;;;3.05;;
21814;SDS011;11069;48.988;8.450;2023-04-27T12:35:48;5.65;;;2.80;;
21814;SDS011;11069;48.988;8.450;2023-04-27T12:38:14;5.50;;;3.03;;
21814;SDS011;11069;48.988;8.450;2023-04-27T12:40:40;4.18;;;2.97;;
21814;SDS011;11069;48.988;8.450;2023-04-27T12:43:06;6.68;;;3.55;;
21814;SDS011;11069;48.988;8.450;2023-04-27T12:45:32;6.38;;;3.40;;
21814;SDS011;11069;48.988;8.450;2023-04-27T12:47:58;5.75;;;3.08;;
21814;SDS011;11069;48.988;8.450;2023-04-27T12:50:23;5.03;;;2.80;;
21814;SDS011;11069;48.988;8.450;2023-04-27T12:52:49;4.10;;;2.85;;
21814;SDS011;11069;48.988;8.450;2023-04-27T12:55:15;5.82;;;3.10;;
21814;SDS011;11069;48.988;8.450;2023-04-27T12:57:40;3.90;;;2.80;;
21814;SDS011;11069;48.988;8.450;2023-04-27T13:00:06;4.95;;;3.05;;
21814;SDS011;11069;48.988;8.450;2023-04-27T13:02:34;3.58;;;3.13;;
21814;SDS011;11069;48.988;8.450;2023-04-27T13:05:01;3.65;;;2.67;;
21814;SDS011;11069;48.988;8.450;2023-04-27T13:07:28;4.93;;;2.47;;
21814;SDS011;11069;48.988;8.450;2023-04-27T13:09:53;4.85;;;2.50;;
21814;SDS011;11069;48.988;8.450;2023-04-27T13:12:19;3.05;;;2.10;;
21814;SDS011;11069;48.988;8.450;2023-04-27T13:14:45;3.95;;;2.83;;
21814;SDS011;11069;48.988;8.450;2023-04-27T13:17:11;5.50;;;2.58;;
21814;SDS011;11069;48.988;8.450;2023-04-27T13:19:36;6.00;;;2.80;;
21814;SDS011;11069;48.988;8.450;2023-04-27T13:22:02;3.38;;;2.50;;
21814;SDS011;11069;48.988;8.450;2023-04-27T13:24:28;4.43;;;2.80;;
21814;SDS011;11069;48.988;8.450;2023-04-27T13:26:54;4.95;;;2.40;;
21814;SDS011;11069;48.988;8.450;2023-04-27T13:29:20;6.68;;;2.60;;
21814;SDS011;11069;48.988;8.450;2023-04-27T13:31:48;5.00;;;2.47;;
21814;SDS011;11069;48.988;8.450;2023-04-27T13:34:14;3.80;;;2.83;;
21814;SDS011;11069;48.988;8.450;2023-04-27T13:36:40;3.85;;;2.40;;
21814;SDS011;11069;48.988;8.450;2023-04-27T13:39:06;3.78;;;2.70;;
21814;SDS011;11069;48.988;8.450;2023-04-27T13:41:33;5.35;;;2.53;;
21814;SDS011;11069;48.988;8.450;2023-04-27T13:43:59;3.72;;;2.42;;
21814;SDS011;11069;48.988;8.450;2023-04-27T13:46:25;4.10;;;2.33;;
21814;SDS011;11069;48.988;8.450;2023-04-27T13:48:51;5.32;;;2.53;;
21814;SDS011;11069;48.988;8.450;2023-04-27T13:51:17;3.08;;;2.03;;
21814;SDS011;11069;48.988;8.450;2023-04-27T13:53:42;3.33;;;2.05;;
21814;SDS011;11069;48.988;8.450;2023-04-27T13:56:08;3.42;;;1.90;;
21814;SDS011;11069;48.988;8.450;2023-04-27T13:58:33;3.15;;;1.83;;
21814;SDS011;11069;48.988;8.450;2023-04-27T14:00:59;4.03;;;1.88;;
21814;SDS011;11069;48.988;8.450;2023-04-27T14:03:25;3.53;;;2.00;;
21814;SDS011;11069;48.988;8.450;2023-04-27T14:05:50;3.72;;;2.35;;
21814;SDS011;11069;48.988;8.450;2023-04-27T14:08:16;5.95;;;2.20;;
21814;SDS011;11069;48.988;8.450;2023-04-27T14:10:43;3.50;;;2.35;;
21814;SDS011;11069;48.988;8.450;2023-04-27T14:13:09;3.80;;;2.25;;
21814;SDS011;11069;48.988;8.450;2023-04-27T14:15:36;2.20;;;1.85;;
21814;SDS011;11069;48.988;8.450;2023-04-27T14:18:04;3.08;;;1.95;;
21814;SDS011;11069;48.988;8.450;2023-04-27T14:20:35;8.73;;;3.00;;
21814;SDS011;11069;48.988;8.450;2023-04-27T14:23:02;5.27;;;2.00;;
21814;SDS011;11069;48.988;8.450;2023-04-27T14:25:29;5.05;;;2.30;;
21814;SDS011;11069;48.988;8.450;2023-04-27T14:28:00;5.20;;;2.70;;
21814;SDS011;11069;48.988;8.450;2023-04-27T14:30:27;5.18;;;2.20;;
21814;SDS011;11069;48.988;8.450;2023-04-27T14:32:52;4.80;;;2.25;;
21814;SDS011;11069;48.988;8.450;2023-04-27T14:35:18;3.85;;;1.90;;
21814;SDS011;11069;48.988;8.450;2023-04-27T14:37:44;3.05;;;1.80;;
21814;SDS011;11069;48.988;8.450;2023-04-27T14:40:11;2.38;;;1.50;;
21814;SDS011;11069;48.988;8.450;2023-04-27T14:42:37;3.17;;;1.90;;
21814;SDS011;11069;48.988;8.450;2023-04-27T14:45:03;3.90;;;1.75;;
21814;SDS011;11069;48.988;8.450;2023-04-27T14:47:29;2.47;;;1.77;;
21814;SDS011;11069;48.988;8.450;2023-04-27T14:49:54;5.30;;;1.85;;
21814;SDS011;11069;48.988;8.450;2023-04-27T14:52:20;2.42;;;1.60;;
21814;SDS011;11069;48.988;8.450;2023-04-27T14:54:45;4.03;;;1.58;;
21814;SDS011;11069;48.988;8.450;2023-04-27T14:57:11;2.10;;;1.70;;
21814;SDS011;11069;48.988;8.450;2023-04-27T14:59:36;3.65;;;1.58;;
21814;SDS011;11069;48.988;8.450;2023-04-27T15:02:02;3.30;;;1.63;;
21814;SDS011;11069;48.988;8.450;2023-04-27T15:04:28;2.70;;;1.50;;
21814;SDS011;11069;48.988;8.450;2023-04-27T15:06:54;3.80;;;1.92;;
21814;SDS011;11069;48.988;8.450;2023-04-27T15:09:20;3.80;;;1.65;;
21814;SDS011;11069;48.988;8.450;2023-04-27T15:11:45;3.85;;;1.45;;
21814;SDS011;11069;48.988;8.450;2023-04-27T15:14:11;2.42;;;1.40;;
21814;SDS011;11069;48.988;8.450;2023-04-27T15:16:36;6.25;;;1.40;;
21814;SDS011;11069;48.988;8.450;2023-04-27T15:19:02;2.92;;;1.75;;
21814;SDS011;11069;48.988;8.450;2023-04-27T15:21:28;2.72;;;1.40;;
21814;SDS011;11069;48.988;8.450;2023-04-27T15:23:55;4.28;;;1.77;;
21814;SDS011;11069;48.988;8.450;2023-04-27T15:26:21;6.68;;;1.67;;
21814;SDS011;11069;48.988;8.450;2023-04-27T15:28:46;3.42;;;1.60;;
21814;SDS011;11069;48.988;8.450;2023-04-27T15:31:12;3.47;;;1.70;;
21814;SDS011;11069;48.988;8.450;2023-04-27T15:33:37;2.08;;;1.42;;
21814;SDS011;11069;48.988;8.450;2023-04-27T15:36:03;3.78;;;1.30;;
21814;SDS011;11069;48.988;8.450;2023-04-27T15:38:29;5.55;;;1.50;;
21814;SDS011;11069;48.988;8.450;2023-04-27T15:40:54;3.20;;;1.48;;
21814;SDS011;11069;48.988;8.450;2023-04-27T15:43:20;3.03;;;1.45;;
21814;SDS011;11069;48.988;8.450;2023-04-27T15:45:46;1.40;;;1.15;;
21814;SDS011;11069;48.988;8.450;2023-04-27T15:48:11;2.25;;;1.60;;